createdAt,value
2018-03-24T00:00:59.886Z,0.00
2018-03-24T00:01:59.978Z,0.00
2018-03-24T00:03:00.068Z,0.00
2018-03-24T00:04:00.159Z,0.00
2018-03-24T00:05:00.254Z,0.00
2018-03-24T00:06:00.349Z,0.00
2018-03-24T00:07:00.443Z,0.00
2018-03-24T00:08:00.535Z,0.00
2018-03-24T00:09:00.621Z,0.00
2018-03-24T00:10:00.712Z,0.00
2018-03-24T00:11:00.807Z,0.00
2018-03-24T00:12:00.901Z,0.00
2018-03-24T00:13:00.996Z,0.00
2018-03-24T00:14:01.087Z,0.00
2018-03-24T00:15:01.186Z,0.00
2018-03-24T00:16:01.269Z,0.00
2018-03-24T00:17:01.360Z,0.00
2018-03-24T00:18:01.456Z,0.00
2018-03-24T00:19:01.558Z,0.00
2018-03-24T00:20:01.647Z,0.00
2018-03-24T00:21:01.732Z,0.00
2018-03-24T00:22:01.822Z,0.00
2018-03-24T00:23:01.914Z,0.00
2018-03-24T00:24:02.021Z,0.00
2018-03-24T00:25:02.115Z,0.00
2018-03-24T00:26:02.206Z,0.00
2018-03-24T00:27:02.298Z,0.00
2018-03-24T00:28:02.391Z,0.00
2018-03-24T00:29:02.482Z,0.00
2018-03-24T00:30:02.578Z,0.00
2018-03-24T00:31:02.667Z,0.00
2018-03-24T00:32:02.759Z,0.00
2018-03-24T00:33:02.848Z,0.00
2018-03-24T00:34:02.943Z,0.00
2018-03-24T00:35:03.032Z,0.00
2018-03-24T00:36:03.147Z,0.00
2018-03-24T00:37:03.215Z,0.00
2018-03-24T00:38:03.308Z,0.00
2018-03-24T00:39:03.395Z,0.00
2018-03-24T00:40:03.487Z,0.00
2018-03-24T00:41:03.580Z,0.00
2018-03-24T00:42:03.667Z,0.00
2018-03-24T00:43:03.759Z,0.00
2018-03-24T00:44:03.850Z,0.00
2018-03-24T00:45:03.940Z,0.00
2018-03-24T00:46:04.029Z,0.00
2018-03-24T00:47:04.121Z,0.00
2018-03-24T00:48:04.221Z,0.00
2018-03-24T00:49:04.312Z,0.00
2018-03-24T00:50:04.406Z,0.00
2018-03-24T00:51:04.496Z,0.00
2018-03-24T00:52:04.590Z,0.00
2018-03-24T00:53:04.681Z,0.00
2018-03-24T00:54:04.777Z,0.00
2018-03-24T00:55:04.865Z,0.00
2018-03-24T00:56:04.973Z,0.00
2018-03-24T00:57:05.063Z,0.00
2018-03-24T00:58:05.154Z,0.00
2018-03-24T00:59:05.243Z,0.00
2018-03-24T01:00:05.336Z,0.00
2018-03-24T01:01:05.425Z,0.00
2018-03-24T01:02:05.520Z,0.00
2018-03-24T01:03:05.609Z,0.00
2018-03-24T01:04:05.696Z,0.00
2018-03-24T01:05:05.786Z,0.00
2018-03-24T01:06:05.881Z,0.00
2018-03-24T01:07:05.973Z,0.00
2018-03-24T01:08:06.064Z,0.00
2018-03-24T01:09:06.155Z,0.00
2018-03-24T01:10:06.252Z,0.00
2018-03-24T01:11:06.341Z,0.00
2018-03-24T01:12:06.428Z,0.00
2018-03-24T01:13:06.525Z,0.00
2018-03-24T01:14:06.638Z,0.00
2018-03-24T01:15:06.704Z,0.00
2018-03-24T01:16:06.799Z,0.00
2018-03-24T01:17:06.886Z,0.00
2018-03-24T01:18:06.978Z,0.00
2018-03-24T01:19:07.069Z,0.00
2018-03-24T01:20:07.163Z,0.00
2018-03-24T01:21:07.253Z,0.00
2018-03-24T01:22:07.338Z,0.00
2018-03-24T01:23:07.432Z,0.00
2018-03-24T01:24:07.520Z,0.00
2018-03-24T01:25:07.609Z,0.00
2018-03-24T01:26:07.699Z,0.00
2018-03-24T01:27:07.801Z,0.00
2018-03-24T01:28:07.891Z,0.00
2018-03-24T01:29:07.985Z,0.00
2018-03-24T01:30:08.074Z,0.00
2018-03-24T01:31:08.165Z,0.00
2018-03-24T01:32:08.255Z,0.00
2018-03-24T01:33:08.342Z,0.00
2018-03-24T01:34:08.434Z,0.00
2018-03-24T01:35:08.524Z,0.00
2018-03-24T01:36:08.617Z,0.00
2018-03-24T01:37:08.706Z,0.00
2018-03-24T01:38:08.800Z,0.00
2018-03-24T01:39:08.890Z,0.00
2018-03-24T01:40:08.982Z,0.00
2018-03-24T01:41:09.064Z,0.00
2018-03-24T01:42:09.152Z,0.00
2018-03-24T01:43:09.244Z,0.00
2018-03-24T01:44:09.335Z,0.00
2018-03-24T01:45:09.427Z,0.00
2018-03-24T01:46:09.520Z,0.00
2018-03-24T01:47:09.609Z,0.00
2018-03-24T01:48:09.701Z,0.00
2018-03-24T01:49:09.790Z,0.00
2018-03-24T01:50:09.890Z,0.00
2018-03-24T01:51:09.976Z,0.00
2018-03-24T01:52:10.070Z,0.00
2018-03-24T01:53:10.164Z,0.00
2018-03-24T01:54:10.252Z,0.00
2018-03-24T01:55:10.346Z,0.00
2018-03-24T01:56:10.434Z,0.00
2018-03-24T01:57:10.531Z,0.00
2018-03-24T01:58:10.623Z,0.00
2018-03-24T01:59:10.712Z,0.00
2018-03-24T02:00:10.799Z,0.00
2018-03-24T02:01:10.892Z,0.00
2018-03-24T02:02:10.981Z,0.00
2018-03-24T02:03:11.071Z,0.00
2018-03-24T02:04:11.170Z,0.00
2018-03-24T02:05:11.255Z,0.00
2018-03-24T02:06:11.348Z,0.00
2018-03-24T02:07:11.437Z,0.00
2018-03-24T02:08:11.528Z,0.00
2018-03-24T02:09:11.621Z,0.00
2018-03-24T02:10:11.715Z,0.00
2018-03-24T02:11:11.804Z,0.00
2018-03-24T02:12:11.895Z,0.00
2018-03-24T02:13:12.012Z,0.00
2018-03-24T02:14:12.102Z,0.00
2018-03-24T02:15:12.191Z,0.00
2018-03-24T02:16:12.284Z,0.00
2018-03-24T02:17:12.381Z,0.00
2018-03-24T02:18:12.480Z,0.00
2018-03-24T02:19:12.564Z,0.00
2018-03-24T02:20:12.658Z,0.00
2018-03-24T02:21:12.759Z,0.00
2018-03-24T02:22:12.855Z,0.00
2018-03-24T02:23:12.958Z,0.00
2018-03-24T02:24:13.050Z,0.00
2018-03-24T02:25:13.197Z,0.00
2018-03-24T02:26:13.232Z,0.00
2018-03-24T02:27:13.322Z,0.00
2018-03-24T02:28:13.406Z,0.00
2018-03-24T02:29:13.509Z,0.00
2018-03-24T02:30:13.600Z,0.00
2018-03-24T02:31:13.691Z,0.00
2018-03-24T02:32:13.781Z,0.00
2018-03-24T02:33:13.872Z,0.00
2018-03-24T02:34:13.960Z,0.00
2018-03-24T02:35:14.054Z,0.00
2018-03-24T02:36:14.145Z,0.00
2018-03-24T02:37:14.238Z,0.00
2018-03-24T02:38:14.329Z,0.00
2018-03-24T02:39:14.421Z,0.00
2018-03-24T02:40:14.509Z,0.00
2018-03-24T02:41:14.596Z,0.00
2018-03-24T02:42:14.686Z,0.00
2018-03-24T02:43:14.769Z,0.00
2018-03-24T02:44:14.858Z,0.00
2018-03-24T02:45:14.954Z,0.00
2018-03-24T02:46:15.048Z,0.00
2018-03-24T02:47:15.130Z,0.00
2018-03-24T02:48:15.227Z,0.00
2018-03-24T02:49:15.318Z,0.00
2018-03-24T02:50:15.406Z,0.00
2018-03-24T02:51:15.497Z,0.00
2018-03-24T02:52:15.588Z,0.00
2018-03-24T02:53:15.681Z,0.00
2018-03-24T02:54:15.772Z,0.00
2018-03-24T02:55:15.873Z,0.00
2018-03-24T02:56:15.962Z,0.00
2018-03-24T02:57:16.054Z,0.00
2018-03-24T02:58:16.148Z,0.00
2018-03-24T02:59:16.244Z,0.00
2018-03-24T03:00:16.337Z,0.00
2018-03-24T03:01:16.421Z,0.00
2018-03-24T03:02:16.511Z,0.00
2018-03-24T03:03:16.601Z,0.00
2018-03-24T03:04:16.691Z,0.00
2018-03-24T03:05:16.782Z,0.00
2018-03-24T03:06:16.875Z,0.00
2018-03-24T03:07:16.970Z,0.00
2018-03-24T03:08:17.055Z,0.00
2018-03-24T03:09:17.146Z,0.00
2018-03-24T03:10:17.236Z,0.00
2018-03-24T03:11:17.328Z,0.00
2018-03-24T03:12:17.422Z,0.00
2018-03-24T03:13:17.513Z,0.00
2018-03-24T03:14:17.603Z,0.00
2018-03-24T03:15:17.691Z,0.00
2018-03-24T03:16:17.784Z,0.00
2018-03-24T03:17:17.876Z,0.00
2018-03-24T03:18:17.969Z,0.00
2018-03-24T03:19:18.053Z,0.00
2018-03-24T03:20:18.140Z,0.00
2018-03-24T03:21:18.237Z,0.00
2018-03-24T03:22:18.323Z,0.00
2018-03-24T03:23:18.418Z,0.00
2018-03-24T03:24:18.509Z,0.00
2018-03-24T03:25:18.597Z,0.00
2018-03-24T03:26:18.689Z,0.00
2018-03-24T03:27:18.780Z,0.00
2018-03-24T03:28:18.872Z,0.00
2018-03-24T03:29:18.965Z,0.00
2018-03-24T03:30:19.057Z,0.00
2018-03-24T03:31:19.148Z,0.00
2018-03-24T03:32:19.238Z,0.00
2018-03-24T03:33:19.334Z,8.00
2018-03-24T03:34:19.425Z,0.00
2018-03-24T03:35:19.514Z,0.00
2018-03-24T03:36:19.602Z,0.00
2018-03-24T03:37:19.695Z,0.00
2018-03-24T03:38:19.779Z,0.00
2018-03-24T03:39:19.869Z,0.00
2018-03-24T03:40:19.959Z,0.00
2018-03-24T03:41:20.044Z,0.00
2018-03-24T03:42:20.138Z,0.00
2018-03-24T03:43:20.228Z,0.00
2018-03-24T03:44:20.325Z,0.00
2018-03-24T03:45:20.412Z,0.00
2018-03-24T03:46:20.505Z,0.00
2018-03-24T03:47:20.595Z,0.00
2018-03-24T03:48:20.686Z,0.00
2018-03-24T03:49:20.778Z,0.00
2018-03-24T03:50:20.874Z,0.00
2018-03-24T03:51:20.966Z,0.00
2018-03-24T03:52:21.052Z,0.00
2018-03-24T03:53:21.144Z,0.00
2018-03-24T03:54:21.235Z,0.00
2018-03-24T03:55:21.325Z,0.00
2018-03-24T03:56:21.418Z,0.00
2018-03-24T03:57:21.506Z,0.00
2018-03-24T03:58:21.597Z,0.00
2018-03-24T03:59:21.689Z,0.00
2018-03-24T04:00:21.794Z,0.00
2018-03-24T04:01:21.856Z,0.00
2018-03-24T04:02:21.945Z,0.00
2018-03-24T04:03:22.026Z,0.00
2018-03-24T04:04:22.118Z,0.00
2018-03-24T04:05:22.211Z,0.00
2018-03-24T04:06:22.300Z,0.00
2018-03-24T04:07:22.393Z,0.00
2018-03-24T04:08:22.484Z,0.00
2018-03-24T04:09:22.576Z,0.00
2018-03-24T04:10:22.665Z,0.00
2018-03-24T04:11:22.757Z,0.00
2018-03-24T04:12:22.851Z,0.00
2018-03-24T04:13:22.935Z,0.00
2018-03-24T04:14:23.027Z,0.00
2018-03-24T04:15:23.116Z,0.00
2018-03-24T04:16:23.209Z,0.00
2018-03-24T04:17:23.300Z,0.00
2018-03-24T04:18:23.388Z,0.00
2018-03-24T04:19:23.504Z,0.00
2018-03-24T04:20:23.573Z,0.00
2018-03-24T04:21:23.667Z,0.00
2018-03-24T04:22:23.748Z,0.00
2018-03-24T04:23:23.848Z,0.00
2018-03-24T04:24:23.937Z,0.00
2018-03-24T04:25:24.031Z,0.00
2018-03-24T04:26:24.126Z,0.00
2018-03-24T04:27:24.215Z,0.00
2018-03-24T04:28:24.325Z,0.00
2018-03-24T04:29:24.420Z,0.00
2018-03-24T04:30:24.509Z,0.00
2018-03-24T04:31:24.604Z,0.00
2018-03-24T04:32:24.696Z,0.00
2018-03-24T04:33:24.788Z,0.00
2018-03-24T04:34:24.876Z,0.00
2018-03-24T04:35:24.964Z,0.00
2018-03-24T04:36:25.051Z,0.00
2018-03-24T04:37:25.146Z,0.00
2018-03-24T04:38:25.234Z,0.00
2018-03-24T04:39:25.324Z,0.00
2018-03-24T04:40:25.415Z,0.00
2018-03-24T04:41:25.514Z,0.00
2018-03-24T04:42:25.602Z,0.00
2018-03-24T04:43:25.692Z,0.00
2018-03-24T04:44:25.786Z,0.00
2018-03-24T04:45:25.873Z,0.00
2018-03-24T04:46:25.965Z,0.00
2018-03-24T04:47:26.055Z,0.00
2018-03-24T04:48:26.145Z,0.00
2018-03-24T04:49:26.236Z,4.00
2018-03-24T04:50:26.330Z,4.00
2018-03-24T04:51:26.419Z,4.00
2018-03-24T04:52:26.507Z,4.00
2018-03-24T04:53:26.600Z,4.00
2018-03-24T04:54:26.688Z,0.00
2018-03-24T04:55:26.775Z,4.00
2018-03-24T04:56:26.861Z,4.00
2018-03-24T04:57:26.949Z,4.00
2018-03-24T04:58:27.037Z,4.00
2018-03-24T04:59:27.126Z,4.00
2018-03-24T05:00:27.207Z,8.00
2018-03-24T05:01:27.294Z,8.00
2018-03-24T05:02:27.387Z,12.00
2018-03-24T05:03:27.480Z,12.00
2018-03-24T05:04:27.571Z,8.00
2018-03-24T05:05:27.666Z,8.00
2018-03-24T05:06:27.756Z,12.00
2018-03-24T05:07:27.848Z,16.00
2018-03-24T05:08:27.945Z,16.00
2018-03-24T05:09:28.036Z,20.00
2018-03-24T05:10:28.127Z,16.00
2018-03-24T05:11:28.217Z,20.00
2018-03-24T05:12:28.308Z,24.00
2018-03-24T05:13:28.398Z,28.00
2018-03-24T05:14:28.493Z,32.00
2018-03-24T05:15:28.585Z,36.00
2018-03-24T05:16:28.673Z,36.00
2018-03-24T05:17:28.761Z,44.00
2018-03-24T05:18:28.851Z,48.00
2018-03-24T05:19:28.934Z,52.00
2018-03-24T05:20:29.021Z,56.00
2018-03-24T05:21:29.110Z,60.00
2018-03-24T05:22:29.210Z,68.00
2018-03-24T05:23:29.296Z,72.00
2018-03-24T05:24:29.387Z,76.00
2018-03-24T05:25:29.480Z,84.00
2018-03-24T05:26:29.578Z,88.00
2018-03-24T05:27:29.664Z,92.00
2018-03-24T05:28:29.757Z,100.00
2018-03-24T05:29:29.847Z,108.00
2018-03-24T05:30:29.941Z,112.00
2018-03-24T05:31:30.034Z,120.00
2018-03-24T05:32:30.123Z,124.00
2018-03-24T05:33:30.216Z,136.00
2018-03-24T05:34:30.305Z,144.00
2018-03-24T05:35:30.395Z,148.00
2018-03-24T05:36:30.485Z,156.00
2018-03-24T05:37:30.578Z,164.00
2018-03-24T05:38:30.662Z,168.00
2018-03-24T05:39:30.748Z,180.00
2018-03-24T05:40:30.840Z,188.00
2018-03-24T05:41:30.930Z,200.00
2018-03-24T05:42:31.021Z,208.00
2018-03-24T05:43:31.108Z,224.00
2018-03-24T05:44:31.204Z,236.00
2018-03-24T05:45:31.295Z,244.00
2018-03-24T05:46:31.388Z,252.00
2018-03-24T05:47:31.481Z,268.00
2018-03-24T05:48:31.638Z,276.00
2018-03-24T05:49:31.670Z,288.00
2018-03-24T05:50:31.762Z,284.00
2018-03-24T05:51:31.852Z,288.00
2018-03-24T05:52:31.945Z,300.00
2018-03-24T05:53:32.039Z,308.00
2018-03-24T05:54:32.129Z,316.00
2018-03-24T05:55:32.221Z,316.00
2018-03-24T05:56:32.311Z,320.00
2018-03-24T05:57:32.422Z,336.00
2018-03-24T05:58:32.492Z,348.00
2018-03-24T05:59:32.582Z,356.00
2018-03-24T06:00:32.676Z,352.00
2018-03-24T06:01:32.765Z,364.00
2018-03-24T06:02:32.858Z,384.00
2018-03-24T06:03:32.948Z,408.00
2018-03-24T06:04:33.039Z,432.00
2018-03-24T06:05:33.123Z,452.00
2018-03-24T06:06:33.209Z,492.00
2018-03-24T06:07:33.303Z,536.00
2018-03-24T06:08:33.391Z,560.00
2018-03-24T06:09:33.487Z,568.00
2018-03-24T06:10:33.634Z,564.00
2018-03-24T06:11:33.655Z,572.00
2018-03-24T06:12:33.745Z,608.00
2018-03-24T06:13:33.840Z,668.00
2018-03-24T06:14:33.930Z,724.00
2018-03-24T06:15:34.021Z,744.00
2018-03-24T06:16:34.112Z,740.00
2018-03-24T06:17:34.203Z,752.00
2018-03-24T06:18:34.297Z,780.00
2018-03-24T06:19:34.399Z,824.00
2018-03-24T06:20:34.489Z,892.00
2018-03-24T06:21:34.578Z,980.00
2018-03-24T06:22:34.668Z,1040.00
2018-03-24T06:23:34.765Z,1104.00
2018-03-24T06:24:34.853Z,1140.00
2018-03-24T06:25:34.947Z,1164.00
2018-03-24T06:26:35.035Z,1184.00
2018-03-24T06:27:35.140Z,1196.00
2018-03-24T06:28:35.222Z,1180.00
2018-03-24T06:29:35.315Z,1160.00
2018-03-24T06:30:35.405Z,1164.00
2018-03-24T06:31:35.498Z,1188.00
2018-03-24T06:32:35.595Z,1212.00
2018-03-24T06:33:35.679Z,1288.00
2018-03-24T06:34:35.769Z,1392.00
2018-03-24T06:35:35.846Z,1480.00
2018-03-24T06:36:35.943Z,1536.00
2018-03-24T06:37:36.035Z,1588.00
2018-03-24T06:38:36.126Z,1632.00
2018-03-24T06:39:36.219Z,1680.00
2018-03-24T06:40:36.315Z,1728.00
2018-03-24T06:41:36.416Z,1792.00
2018-03-24T06:42:36.507Z,1824.00
2018-03-24T06:43:36.598Z,1864.00
2018-03-24T06:44:36.692Z,1904.00
2018-03-24T06:45:36.786Z,1972.00
2018-03-24T06:46:36.884Z,2036.00
2018-03-24T06:47:36.974Z,2104.00
2018-03-24T06:48:37.058Z,2160.00
2018-03-24T06:49:37.158Z,2220.00
2018-03-24T06:50:37.244Z,2264.00
2018-03-24T06:51:37.337Z,2296.00
2018-03-24T06:52:37.429Z,2328.00
2018-03-24T06:53:37.520Z,2396.00
2018-03-24T06:54:37.614Z,2476.00
2018-03-24T06:55:37.705Z,2588.00
2018-03-24T06:56:37.796Z,2684.00
2018-03-24T06:57:37.888Z,2760.00
2018-03-24T06:58:37.978Z,2820.00
2018-03-24T06:59:38.080Z,2852.00
2018-03-24T07:00:38.197Z,2908.00
2018-03-24T07:01:38.264Z,2972.00
2018-03-24T07:02:38.356Z,3056.00
2018-03-24T07:03:38.446Z,3156.00
2018-03-24T07:04:38.541Z,3224.00
2018-03-24T07:05:38.638Z,3264.00
2018-03-24T07:06:38.730Z,3288.00
2018-03-24T07:07:38.820Z,3312.00
2018-03-24T07:08:38.910Z,3348.00
2018-03-24T07:09:39.002Z,3412.00
2018-03-24T07:10:39.097Z,3508.00
2018-03-24T07:11:39.186Z,3600.00
2018-03-24T07:12:39.279Z,3684.00
2018-03-24T07:13:39.367Z,3772.00
2018-03-24T07:14:39.460Z,3852.00
2018-03-24T07:15:39.555Z,3972.00
2018-03-24T07:16:39.648Z,4084.00
2018-03-24T07:17:39.742Z,4224.00
2018-03-24T07:18:39.832Z,4356.00
2018-03-24T07:19:39.928Z,4460.00
2018-03-24T07:20:40.019Z,4524.00
2018-03-24T07:21:40.126Z,4632.00
2018-03-24T07:22:40.218Z,4688.00
2018-03-24T07:23:40.311Z,4780.00
2018-03-24T07:24:40.403Z,4824.00
2018-03-24T07:25:40.496Z,4832.00
2018-03-24T07:26:40.588Z,4828.00
2018-03-24T07:27:40.680Z,4824.00
2018-03-24T07:28:40.777Z,4848.00
2018-03-24T07:29:40.871Z,4948.00
2018-03-24T07:30:40.966Z,5016.00
2018-03-24T07:31:41.057Z,5136.00
2018-03-24T07:32:41.148Z,5296.00
2018-03-24T07:33:41.232Z,5460.00
2018-03-24T07:34:41.336Z,5524.00
2018-03-24T07:35:41.420Z,5644.00
2018-03-24T07:36:41.510Z,5892.00
2018-03-24T07:37:41.605Z,6212.00
2018-03-24T07:38:41.698Z,5868.00
2018-03-24T07:39:41.805Z,5964.00
2018-03-24T07:40:41.895Z,6176.00
2018-03-24T07:41:41.990Z,6240.00
2018-03-24T07:42:42.084Z,6440.00
2018-03-24T07:43:42.178Z,6568.00
2018-03-24T07:44:42.273Z,6364.00
2018-03-24T07:45:42.372Z,6168.00
2018-03-24T07:46:42.451Z,6148.00
2018-03-24T07:47:42.555Z,5816.00
2018-03-24T07:48:42.649Z,5904.00
2018-03-24T07:49:42.745Z,6212.00
2018-03-24T07:50:42.840Z,6588.00
2018-03-24T07:51:42.934Z,6600.00
2018-03-24T07:52:43.035Z,6440.00
2018-03-24T07:53:43.144Z,6208.00
2018-03-24T07:54:43.222Z,6036.00
2018-03-24T07:55:43.316Z,5464.00
2018-03-24T07:56:43.409Z,5464.00
2018-03-24T07:57:43.501Z,5420.00
2018-03-24T07:58:43.599Z,5516.00
2018-03-24T07:59:43.693Z,5560.00
2018-03-24T08:00:43.791Z,5748.00
2018-03-24T08:01:43.887Z,5936.00
2018-03-24T08:02:43.976Z,5616.00
2018-03-24T08:03:44.071Z,5436.00
2018-03-24T08:04:44.163Z,5508.00
2018-03-24T08:05:44.258Z,5584.00
2018-03-24T08:06:44.350Z,5548.00
2018-03-24T08:07:44.443Z,5432.00
2018-03-24T08:08:44.538Z,5504.00
2018-03-24T08:09:44.632Z,5316.00
2018-03-24T08:10:44.724Z,5308.00
2018-03-24T08:11:44.821Z,5356.00
2018-03-24T08:12:44.918Z,5188.00
2018-03-24T08:13:45.009Z,5116.00
2018-03-24T08:14:45.108Z,4988.00
2018-03-24T08:15:45.207Z,5284.00
2018-03-24T08:16:45.340Z,5256.00
2018-03-24T08:17:45.392Z,5164.00
2018-03-24T08:18:45.489Z,5116.00
2018-03-24T08:19:45.612Z,5092.00
2018-03-24T08:20:45.707Z,5060.00
2018-03-24T08:21:45.801Z,5016.00
2018-03-24T08:22:45.896Z,5032.00
2018-03-24T08:23:45.985Z,4972.00
2018-03-24T08:24:46.078Z,4900.00
2018-03-24T08:25:46.170Z,4928.00
2018-03-24T08:26:46.268Z,4960.00
2018-03-24T08:27:46.361Z,4964.00
2018-03-24T08:28:46.460Z,5040.00
2018-03-24T08:29:46.603Z,4988.00
2018-03-24T08:30:46.646Z,5008.00
2018-03-24T08:31:46.790Z,5036.00
2018-03-24T08:32:46.893Z,5096.00
2018-03-24T08:33:46.999Z,5008.00
2018-03-24T08:34:47.089Z,5036.00
2018-03-24T08:35:47.181Z,5048.00
2018-03-24T08:36:47.275Z,5120.00
2018-03-24T08:37:47.376Z,5112.00
2018-03-24T08:38:47.467Z,5212.00
2018-03-24T08:39:47.561Z,5244.00
2018-03-24T08:40:47.659Z,5280.00
2018-03-24T08:41:47.757Z,5340.00
2018-03-24T08:42:47.854Z,5388.00
2018-03-24T08:43:47.942Z,5480.00
2018-03-24T08:44:48.036Z,5420.00
2018-03-24T08:45:48.133Z,5236.00
2018-03-24T08:46:48.224Z,3944.00
2018-03-24T08:47:48.328Z,4296.00
2018-03-24T08:48:48.406Z,5408.00
2018-03-24T08:52:20.557Z,5860.00
2018-03-24T08:53:20.651Z,5932.00
2018-03-24T08:54:20.746Z,5832.00
2018-03-24T08:55:20.842Z,5852.00
2018-03-24T08:56:20.935Z,6076.00
2018-03-24T08:57:21.031Z,5272.00
2018-03-24T08:58:21.130Z,6048.00
2018-03-24T08:59:21.227Z,6112.00
2018-03-24T09:00:21.323Z,4912.00
2018-03-24T09:01:21.418Z,5896.00
2018-03-24T09:02:21.514Z,5836.00
2018-03-24T09:03:21.619Z,5792.00
2018-03-24T09:04:21.722Z,4804.00
2018-03-24T09:05:21.810Z,4332.00
2018-03-24T09:06:21.902Z,4308.00
2018-03-24T09:07:22.001Z,4720.00
2018-03-24T09:08:22.091Z,5556.00
2018-03-24T09:09:22.189Z,6200.00
2018-03-24T09:10:22.281Z,6256.00
2018-03-24T09:11:22.377Z,5512.00
2018-03-24T09:12:22.469Z,5840.00
2018-03-24T09:13:22.562Z,7256.00
2018-03-24T09:14:22.658Z,7596.00
2018-03-24T09:15:22.754Z,6948.00
2018-03-24T09:16:22.848Z,6316.00
2018-03-24T09:17:22.991Z,6036.00
2018-03-24T09:18:23.043Z,5932.00
2018-03-24T09:19:23.140Z,5788.00
2018-03-24T09:20:23.230Z,5700.00
2018-03-24T09:21:23.326Z,5652.00
2018-03-24T09:22:23.420Z,5692.00
2018-03-24T09:23:23.512Z,5712.00
2018-03-24T09:24:23.613Z,6440.00
2018-03-24T09:25:23.706Z,6236.00
2018-03-24T09:26:23.801Z,5808.00
2018-03-24T09:27:23.890Z,5680.00
2018-03-24T09:28:23.994Z,5688.00
2018-03-24T09:29:24.086Z,5796.00
2018-03-24T09:30:24.179Z,5880.00
2018-03-24T09:31:24.268Z,5864.00
2018-03-24T09:32:24.372Z,5904.00
2018-03-24T09:33:24.459Z,6092.00
2018-03-24T09:34:24.557Z,6096.00
2018-03-24T09:35:24.645Z,6168.00
2018-03-24T09:36:24.773Z,6216.00
2018-03-24T09:37:24.861Z,6316.00
2018-03-24T09:38:24.958Z,6348.00
2018-03-24T09:39:25.053Z,6272.00
2018-03-24T09:40:25.148Z,6296.00
2018-03-24T09:41:25.242Z,6332.00
2018-03-24T09:42:25.336Z,6372.00
2018-03-24T09:43:25.433Z,6500.00
2018-03-24T09:44:25.527Z,6744.00
2018-03-24T09:45:25.628Z,6848.00
2018-03-24T09:46:25.713Z,6700.00
2018-03-24T09:47:25.815Z,6532.00
2018-03-24T09:48:25.904Z,6444.00
2018-03-24T09:49:26.002Z,6468.00
2018-03-24T09:50:26.103Z,6548.00
2018-03-24T09:51:26.188Z,6580.00
2018-03-24T09:52:26.283Z,6572.00
2018-03-24T09:53:26.373Z,6448.00
2018-03-24T09:54:26.462Z,6380.00
2018-03-24T09:55:26.564Z,6340.00
2018-03-24T09:56:26.661Z,6348.00
2018-03-24T09:57:26.755Z,6372.00
2018-03-24T09:58:26.846Z,6356.00
2018-03-24T09:59:26.942Z,6348.00
2018-03-24T10:00:27.036Z,6344.00
2018-03-24T10:01:27.129Z,6236.00
2018-03-24T10:02:27.226Z,6160.00
2018-03-24T10:03:27.325Z,6108.00
2018-03-24T10:04:27.422Z,6132.00
2018-03-24T10:05:27.515Z,6064.00
2018-03-24T10:06:27.608Z,5944.00
2018-03-24T10:07:27.704Z,5888.00
2018-03-24T10:08:27.799Z,5876.00
2018-03-24T10:09:27.907Z,5888.00
2018-03-24T10:10:28.003Z,5828.00
2018-03-24T10:11:28.097Z,5740.00
2018-03-24T10:12:28.192Z,5612.00
2018-03-24T10:13:28.292Z,5508.00
2018-03-24T10:14:28.384Z,5416.00
2018-03-24T10:15:28.475Z,5316.00
2018-03-24T10:16:28.579Z,5224.00
2018-03-24T10:17:28.683Z,5208.00
2018-03-24T10:18:28.777Z,5196.00
2018-03-24T10:19:28.874Z,5212.00
2018-03-24T10:20:28.967Z,5228.00
2018-03-24T10:21:29.064Z,5308.00
2018-03-24T10:22:29.196Z,5420.00
2018-03-24T10:23:29.254Z,5528.00
2018-03-24T10:24:29.348Z,5604.00
2018-03-24T10:25:29.439Z,5672.00
2018-03-24T10:26:29.537Z,5720.00
2018-03-24T10:27:29.633Z,5764.00
2018-03-24T10:28:29.730Z,5856.00
2018-03-24T10:29:29.823Z,5920.00
2018-03-24T10:30:29.918Z,5944.00
2018-03-24T10:31:30.013Z,5948.00
2018-03-24T10:32:30.110Z,5968.00
2018-03-24T10:33:30.205Z,6000.00
2018-03-24T10:34:30.303Z,6020.00
2018-03-24T10:35:30.423Z,6028.00
2018-03-24T10:36:30.489Z,6028.00
2018-03-24T10:37:30.580Z,6060.00
2018-03-24T10:38:30.674Z,6104.00
2018-03-24T10:39:30.773Z,6156.00
2018-03-24T10:40:30.885Z,6236.00
2018-03-24T10:41:31.017Z,6340.00
2018-03-24T10:42:31.073Z,6372.00
2018-03-24T10:43:31.169Z,6380.00
2018-03-24T10:44:31.266Z,6384.00
2018-03-24T10:45:31.361Z,6420.00
2018-03-24T10:46:31.458Z,6348.00
2018-03-24T10:47:31.553Z,6376.00
2018-03-24T10:48:31.647Z,6420.00
2018-03-24T10:49:31.744Z,6468.00
2018-03-24T10:50:31.845Z,6540.00
2018-03-24T10:51:31.936Z,6500.00
2018-03-24T10:52:32.033Z,6508.00
2018-03-24T10:53:32.129Z,6460.00
2018-03-24T10:54:32.225Z,6360.00
2018-03-24T10:55:32.319Z,6300.00
2018-03-24T10:56:32.412Z,6256.00
2018-03-24T10:57:32.505Z,6204.00
2018-03-24T10:58:32.601Z,6176.00
2018-03-24T10:59:32.697Z,6064.00
2018-03-24T11:00:32.796Z,5908.00
2018-03-24T11:01:32.888Z,5796.00
2018-03-24T11:02:33.000Z,5700.00
2018-03-24T11:03:33.095Z,5576.00
2018-03-24T11:04:33.194Z,5548.00
2018-03-24T11:05:33.292Z,5648.00
2018-03-24T11:06:33.389Z,5732.00
2018-03-24T11:07:33.483Z,5780.00
2018-03-24T11:08:33.579Z,5800.00
2018-03-24T11:09:33.676Z,5812.00
2018-03-24T11:10:33.771Z,5756.00
2018-03-24T11:11:33.865Z,5724.00
2018-03-24T11:12:33.954Z,5632.00
2018-03-24T11:13:34.055Z,5596.00
2018-03-24T11:14:34.149Z,5564.00
2018-03-24T11:15:34.236Z,5516.00
2018-03-24T11:16:34.335Z,5448.00
2018-03-24T11:17:34.432Z,5368.00
2018-03-24T11:18:34.529Z,5280.00
2018-03-24T11:19:34.627Z,5288.00
2018-03-24T11:20:34.722Z,5172.00
2018-03-24T11:21:34.816Z,5160.00
2018-03-24T11:22:34.929Z,5168.00
2018-03-24T11:23:35.024Z,5224.00
2018-03-24T11:24:35.121Z,5300.00
2018-03-24T11:25:35.219Z,5420.00
2018-03-24T11:26:35.338Z,5568.00
2018-03-24T11:27:35.414Z,5772.00
2018-03-24T11:28:35.497Z,5992.00
2018-03-24T11:29:35.597Z,6120.00
2018-03-24T11:30:35.691Z,6200.00
2018-03-24T11:31:35.786Z,6208.00
2018-03-24T11:32:35.882Z,6296.00
2018-03-24T11:33:35.981Z,6356.00
2018-03-24T11:34:36.082Z,6356.00
2018-03-24T11:35:36.180Z,6332.00
2018-03-24T11:36:36.271Z,6296.00
2018-03-24T11:37:36.361Z,6248.00
2018-03-24T11:38:36.461Z,6164.00
2018-03-24T11:39:36.554Z,6108.00
2018-03-24T11:40:36.655Z,5964.00
2018-03-24T11:41:36.749Z,5860.00
2018-03-24T11:42:36.850Z,5740.00
2018-03-24T11:43:36.946Z,5712.00
2018-03-24T11:44:37.047Z,5656.00
2018-03-24T11:45:37.140Z,5600.00
2018-03-24T11:46:37.241Z,5584.00
2018-03-24T11:47:37.340Z,5612.00
2018-03-24T11:48:37.445Z,5648.00
2018-03-24T11:49:37.564Z,5720.00
2018-03-24T11:50:37.717Z,5812.00
2018-03-24T11:51:37.761Z,5916.00
2018-03-24T11:52:37.865Z,5992.00
2018-03-24T11:53:37.965Z,6064.00
2018-03-24T11:54:38.063Z,6088.00
2018-03-24T11:55:38.164Z,6092.00
2018-03-24T11:56:38.268Z,6116.00
2018-03-24T11:57:38.367Z,6184.00
2018-03-24T11:58:38.464Z,6308.00
2018-03-24T11:59:38.559Z,6420.00
2018-03-24T12:00:38.654Z,6508.00
2018-03-24T12:01:38.754Z,6592.00
2018-03-24T12:02:38.841Z,6640.00
2018-03-24T12:03:39.007Z,6680.00
2018-03-24T12:04:39.040Z,6756.00
2018-03-24T12:05:39.134Z,6804.00
2018-03-24T12:06:39.235Z,6844.00
2018-03-24T12:07:39.336Z,6932.00
2018-03-24T12:08:39.434Z,7260.00
2018-03-24T12:09:39.533Z,7332.00
2018-03-24T12:10:39.622Z,7900.00
2018-03-24T12:11:39.720Z,8072.00
2018-03-24T12:12:39.816Z,7484.00
2018-03-24T12:13:39.911Z,7808.00
2018-03-24T12:14:40.012Z,8076.00
2018-03-24T12:15:40.107Z,7604.00
2018-03-24T12:16:40.219Z,7300.00
2018-03-24T12:17:40.321Z,7372.00
2018-03-24T12:18:40.412Z,7632.00
2018-03-24T12:19:40.509Z,7336.00
2018-03-24T12:20:40.601Z,8644.00
2018-03-24T12:21:40.701Z,7872.00
2018-03-24T12:22:40.800Z,7116.00
2018-03-24T12:23:40.905Z,8148.00
2018-03-24T12:24:41.003Z,8124.00
2018-03-24T12:25:41.096Z,8076.00
2018-03-24T12:26:41.192Z,7932.00
2018-03-24T12:27:41.297Z,7804.00
2018-03-24T12:28:41.388Z,7688.00
2018-03-24T12:29:41.487Z,6456.00
2018-03-24T12:30:41.594Z,6028.00
2018-03-24T12:31:41.677Z,6060.00
2018-03-24T12:32:41.775Z,6860.00
2018-03-24T12:33:41.878Z,6000.00
2018-03-24T12:34:41.968Z,7036.00
2018-03-24T12:35:42.069Z,6908.00
2018-03-24T12:36:42.167Z,4300.00
2018-03-24T12:37:42.263Z,4216.00
2018-03-24T12:38:42.350Z,4172.00
2018-03-24T12:39:42.446Z,4180.00
2018-03-24T12:40:42.542Z,4216.00